Toledo Express Airport
KTOL : rendu visible

Aérodrome :











RETROUVEZ-NOUS SUR...

 
LOGIN :

S'inscrire | Disclaimer

   EN    FR    IT 

 









Légende :    VFR   VFR Marginal   IFR   IFR Intensif   IFR Très Intensif
Visi : 
Plafond : 
>= 8 km
>= 3000ft
5 à 8 km
1000 à 3000 ft
1500m à 5 km
500 à 1000 ft
800 à 1500m
200 à 500 ft
< 800m
< 200 ft
Symboles :   Orages  Brouillard  Fortes neiges  Fortes précipitations  Vent > 20 kt






- Altitude de l'aérodrome : 683 ft
- Code IATA : TOL


KTOL - Toledo Express

DERNIER METAR :
  • 192252Z 29006KT 10SM CLR M01/M11 A3049 RMK AO2 SLP332 T10061111 $

METARs EXPIRÉS :
  • 192152Z 28007KT 10SM CLR 01/M11 A3048 RMK AO2 SLP330 T00061106 $
  • 192052Z 28005KT 10SM CLR 01/M11 A3049 RMK AO2 SLP334 T00061111 56012 $
  • 191952Z 29011G17KT 10SM CLR 00/M12 A3050 RMK AO2 SLP336 T00001122 $

TAF KTOL
Valide du 19 à 18h jusqu'au 20 à 18h UTC


191723Z 1918/2018 30008KT P6SM FEW250
FM201000 34007KT P6SM OVC060



MET'MAP, la Météo Aéronautique d'un coup d'oeil ! - Copyright ORBIFLY Décembre 2007 - Disclaimer

ORBIFLY MET'MAP TEAM :

Programmation & Développement : Alexandra Zaïnal
Sur une idée originale de : Baudouin d'Aumeries
Assistance à la programmation : Marc-Olivier Méhu
Soutien technique & logistique : Manuel Goepfert

Contact : metmap@orbifly.com




SOURCES & CREDITS :

   NOAA       Earth
Advisory